To NAV CANADA Home Page Login to a new session Search on AWWS site Feedback and Comments Disclaimer Vers la page française équivalente Tips FAQ What's new on the site To the Forecasts and Observations / NOTAM section To "File a Flight Plan" website Publications and other links Update of the User's profile FIC Telephone Numbers My Weather Data Folder Route Weather Data Regional Weather Data Local Weather Data To the Forecasts and Observations / NOTAM section
Request Generated 02/14/2016 at 09:51:58 UTC . Weather information available at that time is displayed.

METAR/TAF

GREENWOOD/NS    

METAR CYZX 140900Z 04009KT 2SM -SN OVC023 M10/M13 A2980 RMK SC8 WNDY HILL 03015G26KT SLP095=
METAR CYZX 140800Z 05011KT 2SM -SN OVC018 M10/M12 A2979 RMK SC8 WNDY HILL 03013G21KT /S01/ SLP088=
METAR CYZX 140700Z 04007KT 2 1/2SM -SN OVC024 M09/M13 A2977 RMK SC8 WNDY HILL 04013G21KT SLP082=

TAF CYZX 140530Z 1406/1506 03010KT P6SM -SN OVC025 TEMPO 1406/1414
2SM -SHSN OVC012
FM141400 35015KT P6SM BKN030 TEMPO 1414/1506 5SM -SHSN OVC020
BECMG 1417/1419 29015G25KT
RMK NXT FCST BY 141200Z=
Your time UTC time
Weather data provided by Environment Canada and NAV CANADA